Time;durP1;ratioP1;P1;durP2;ratioP2;P2;SDS_P1;SDS_P2;PMS_P1;PMS_P2;Temp;Humidity;BMP_temperature;BMP_pressure;BME280_temperature;BME280_humidity;BME280_pressure;Samples;Min_cycle;Max_cycle;Signal;HPM_P1;HPM_P2
2022/10/04 00:02:32;;;;;;;0.50;0.50;;;;;;;14.01;80.11;99520.09;5128340;27;20699;-76
2022/10/04 00:05:02;;;;;;;0.50;0.50;;;;;;;13.98;80.05;99515.06;5137718;27;20201;-75
2022/10/04 00:07:32;;;;;;;0.60;0.60;;;;;;;13.94;80.40;99519.50;5131549;27;20277;-75
2022/10/04 00:10:05;;;;;;;0.70;0.70;;;;;;;13.87;80.65;99514.66;5131615;27;20197;-76
2022/10/04 00:12:37;;;;;;;0.47;0.47;;;;;;;13.86;80.82;99515.59;5131637;27;20224;-76
2022/10/04 00:15:15;;;;;;;0.97;0.97;;;;;;;13.85;81.31;99503.59;5133060;27;20202;-76
2022/10/04 00:17:42;;;;;;;0.50;0.50;;;;;;;13.82;81.57;99504.56;5132150;27;20218;-77
2022/10/04 00:20:56;;;;;;;0.60;0.60;;;;;;;13.63;81.91;99483.84;5130499;27;20333;-76
2022/10/04 00:23:29;;;;;;;0.50;0.50;;;;;;;13.67;81.87;99500.03;5136456;27;20204;-75
2022/10/04 00:26:00;;;;;;;0.60;0.60;;;;;;;13.65;82.45;99496.69;5131390;27;20190;-76
2022/10/04 00:28:30;;;;;;;0.50;0.50;;;;;;;13.64;82.18;99495.84;5131221;27;20179;-75
2022/10/04 00:31:19;;;;;;;0.40;0.40;;;;;;;13.68;81.79;99502.56;5130926;27;20281;-75
2022/10/04 00:33:48;;;;;;;0.40;0.40;;;;;;;13.76;81.29;99493.69;5132246;27;20194;-75
2022/10/04 00:36:48;;;;;;;0.50;0.50;;;;;;;13.70;81.60;99489.59;5132057;27;20186;-76
2022/10/04 00:39:26;;;;;;;0.50;0.50;;;;;;;13.70;81.73;99483.63;5137460;27;20218;-77
2022/10/04 00:42:23;;;;;;;0.63;0.63;;;;;;;13.71;81.73;99495.59;5130972;27;20184;-76
2022/10/04 00:44:56;;;;;;;0.37;0.37;;;;;;;13.74;81.73;99495.47;5127791;27;20194;-77
2022/10/04 00:47:30;;;;;;;0.50;0.50;;;;;;;13.72;81.84;99499.84;5130028;27;20190;-76
2022/10/04 00:50:03;;;;;;;0.50;0.50;;;;;;;13.63;82.30;99499.31;5131137;27;20611;-76
2022/10/04 00:52:33;;;;;;;0.50;0.50;;;;;;;13.67;82.02;99498.28;5131657;27;20190;-77
2022/10/04 00:55:05;;;;;;;0.57;0.57;;;;;;;13.65;82.14;99500.09;5130979;27;20608;-76
2022/10/04 00:57:39;;;;;;;0.43;0.43;;;;;;;13.60;82.79;99504.59;5130245;27;20217;-76
2022/10/04 01:00:12;;;;;;;0.70;0.70;;;;;;;13.62;82.67;99502.81;5135379;27;20730;-77
2022/10/04 01:02:51;;;;;;;0.50;0.50;;;;;;;13.56;83.00;99497.91;5130282;27;20178;-76
2022/10/04 01:05:25;;;;;;;0.60;0.60;;;;;;;13.50;83.09;99500.75;5130643;27;20272;-76
2022/10/04 01:07:58;;;;;;;0.60;0.60;;;;;;;13.44;83.57;99510.44;5130032;27;20197;-76
2022/10/04 01:10:29;;;;;;;0.47;0.47;;;;;;;13.35;84.09;99509.06;5131089;27;20197;-77
2022/10/04 01:13:06;;;;;;;0.50;0.50;;;;;;;13.37;84.33;99509.84;5130102;27;20228;-76
2022/10/04 01:15:47;;;;;;;0.40;0.40;;;;;;;13.26;85.18;99504.28;5132026;27;20190;-76
2022/10/04 01:18:28;;;;;;;0.40;0.40;;;;;;;13.18;85.34;99497.75;5129485;27;20273;-76
2022/10/04 01:20:58;;;;;;;0.70;0.70;;;;;;;12.55;85.98;99414.41;5131399;27;20210;-77
2022/10/04 01:23:41;;;;;;;0.50;0.50;;;;;;;13.03;86.89;99512.84;5130261;27;20708;-76
2022/10/04 01:26:36;;;;;;;0.50;0.50;;;;;;;13.03;86.88;99510.28;5129834;27;20197;-77
2022/10/04 01:29:09;;;;;;;0.47;0.47;;;;;;;13.04;86.69;99501.66;5132936;27;20243;-77
2022/10/04 01:31:39;;;;;;;0.50;0.50;;;;;;;13.08;86.51;99499.81;5131583;27;20178;-77
2022/10/04 01:34:10;;;;;;;0.50;0.50;;;;;;;13.10;86.57;99509.19;5129696;27;20568;-77
2022/10/04 01:36:38;;;;;;;0.43;0.43;;;;;;;12.93;86.34;99479.81;5134719;27;20195;-77
2022/10/04 01:39:08;;;;;;;0.50;0.50;;;;;;;13.09;87.00;99511.81;5133251;27;20661;-76
2022/10/04 01:41:45;;;;;;;0.40;0.40;;;;;;;13.10;86.70;99509.19;5126175;27;20190;-76
2022/10/04 01:44:20;;;;;;;0.50;0.50;;;;;;;13.17;86.54;99509.78;5129406;27;20658;-77
2022/10/04 01:49:34;;;;;;;0.60;0.60;;;;;;;13.29;86.03;99519.59;5128425;27;20763;-76
2022/10/04 01:52:07;;;;;;;0.50;0.50;;;;;;;13.25;85.91;99507.72;5129992;27;20202;-77
2022/10/04 01:54:44;;;;;;;0.60;0.60;;;;;;;13.36;85.19;99521.03;5129244;27;20199;-76
2022/10/04 01:57:16;;;;;;;0.40;0.40;;;;;;;13.40;85.25;99516.63;5129957;27;20198;-76
2022/10/04 01:59:51;;;;;;;0.50;0.50;;;;;;;13.43;84.72;99514.75;5135950;27;20238;-76
2022/10/04 02:02:25;;;;;;;0.60;0.60;;;;;;;13.50;85.06;99508.47;5130108;27;20178;-76
2022/10/04 02:04:56;;;;;;;0.73;0.73;;;;;;;13.46;84.92;99516.38;5130273;27;20269;-76
2022/10/04 02:07:28;;;;;;;0.47;0.47;;;;;;;13.47;84.88;99513.72;5128829;27;20743;-76
2022/10/04 02:10:00;;;;;;;0.40;0.40;;;;;;;13.47;84.80;99512.91;5129666;27;20220;-76
2022/10/04 02:12:31;;;;;;;0.50;0.50;;;;;;;13.42;84.72;99517.38;5128478;27;20294;-78
2022/10/04 02:15:01;;;;;;;0.63;0.63;;;;;;;13.46;84.83;99517.22;5133915;27;20213;-77
2022/10/04 02:17:38;;;;;;;0.40;0.40;;;;;;;13.46;84.65;99519.78;5136944;27;20205;-76
2022/10/04 02:20:12;;;;;;;0.50;0.50;;;;;;;13.49;84.79;99527.38;5138461;27;20214;-76
2022/10/04 02:22:40;;;;;;;0.50;0.50;;;;;;;13.50;84.71;99533.38;5132709;27;20297;-76
2022/10/04 02:25:13;;;;;;;0.70;0.70;;;;;;;13.53;84.96;99539.25;5133536;27;20197;-76
2022/10/04 02:27:40;;;;;;;0.50;0.50;;;;;;;13.54;84.65;99540.91;5133342;27;20704;-76
2022/10/04 02:30:10;;;;;;;0.60;0.60;;;;;;;13.50;84.82;99539.38;5136974;27;20202;-76
2022/10/04 02:35:23;;;;;;;0.50;0.50;;;;;;;13.11;85.05;99474.00;5133003;27;20213;-76
2022/10/04 02:37:57;;;;;;;0.70;0.70;;;;;;;13.46;85.14;99548.09;5133296;27;20375;-76
2022/10/04 02:40:39;;;;;;;0.50;0.50;;;;;;;13.53;85.11;99552.13;5133285;27;20217;-76
2022/10/04 02:43:14;;;;;;;0.67;0.67;;;;;;;13.55;85.01;99549.47;5132258;27;20225;-77
2022/10/04 02:45:49;;;;;;;0.70;0.70;;;;;;;13.53;84.90;99548.72;5132210;27;20198;-76
2022/10/04 02:48:40;;;;;;;0.50;0.50;;;;;;;13.55;85.22;99560.63;5132910;27;20254;-75
2022/10/04 02:51:18;;;;;;;0.50;0.50;;;;;;;13.25;85.46;99510.31;5132847;27;20190;-76
2022/10/04 02:53:58;;;;;;;0.50;0.50;;;;;;;13.54;84.90;99561.50;5131864;27;20571;-76
2022/10/04 02:56:27;;;;;;;0.60;0.60;;;;;;;13.46;85.96;99558.41;5128008;27;20284;-75
2022/10/04 02:59:01;;;;;;;0.53;0.53;;;;;;;13.46;85.62;99557.56;5132179;27;20198;-76
2022/10/04 03:01:41;;;;;;;0.50;0.50;;;;;;;13.42;86.02;99564.56;5132483;27;20236;-75
2022/10/04 03:04:13;;;;;;;0.70;0.70;;;;;;;13.38;86.95;99575.88;5131170;27;20190;-76
2022/10/04 03:06:45;;;;;;;0.60;0.60;;;;;;;13.36;86.99;99563.97;5130579;27;20197;-76
2022/10/04 03:09:14;;;;;;;0.53;0.53;;;;;;;13.34;87.43;99569.19;5133493;27;20250;-75
2022/10/04 03:11:43;;;;;;;0.60;0.60;;;;;;;13.33;87.43;99572.66;5131775;27;20217;-76
2022/10/04 03:14:16;;;;;;;0.70;0.70;;;;;;;13.27;87.40;99554.88;5130841;27;20251;-76
2022/10/04 03:16:45;;;;;;;0.40;0.40;;;;;;;12.99;87.51;99510.44;5131038;27;20194;-77
2022/10/04 03:19:17;;;;;;;0.50;0.50;;;;;;;13.16;87.21;99528.69;5131962;27;20755;-76
2022/10/04 03:21:48;;;;;;;0.40;0.40;;;;;;;13.38;86.91;99570.72;5133093;27;20700;-75
2022/10/04 03:24:19;;;;;;;0.50;0.50;;;;;;;13.32;87.08;99559.84;5131302;27;20194;-76
2022/10/04 03:26:53;;;;;;;0.60;0.60;;;;;;;13.33;86.61;99567.50;5137423;27;20186;-76
2022/10/04 03:29:25;;;;;;;0.60;0.60;;;;;;;13.30;86.09;99572.78;5139860;27;20186;-75
2022/10/04 03:31:56;;;;;;;0.53;0.53;;;;;;;13.32;85.75;99570.97;5130166;27;20580;-75
2022/10/04 03:34:26;;;;;;;0.53;0.53;;;;;;;13.34;85.87;99569.19;5131809;27;20595;-75
2022/10/04 03:36:57;;;;;;;0.40;0.40;;;;;;;13.26;85.69;99558.34;5131865;27;20198;-75
2022/10/04 03:39:31;;;;;;;0.60;0.60;;;;;;;13.27;85.52;99562.59;5130544;27;20277;-76
2022/10/04 03:42:05;;;;;;;0.60;0.60;;;;;;;13.24;85.49;99567.03;5132171;27;20202;-76
2022/10/04 03:44:32;;;;;;;0.50;0.50;;;;;;;13.20;85.69;99566.31;5131903;27;20190;-75
2022/10/04 03:47:01;;;;;;;0.47;0.47;;;;;;;13.17;86.40;99570.72;5132020;27;20281;-75
2022/10/04 03:49:34;;;;;;;0.33;0.33;;;;;;;13.01;86.89;99567.88;5131226;27;20198;-76
2022/10/04 03:52:02;;;;;;;0.60;0.60;;;;;;;13.03;86.85;99571.19;5131535;27;20219;-75
2022/10/04 03:54:39;;;;;;;0.50;0.50;;;;;;;12.96;87.06;99580.03;5143156;27;20190;-76
2022/10/04 03:57:13;;;;;;;0.50;0.50;;;;;;;12.94;86.99;99579.28;5130310;27;20217;-77
2022/10/04 03:59:45;;;;;;;0.47;0.47;;;;;;;12.93;87.06;99577.59;5130385;27;20757;-75
2022/10/04 04:02:29;;;;;;;0.50;0.50;;;;;;;12.94;86.62;99574.97;5128072;27;20289;-75
2022/10/04 04:05:06;;;;;;;0.40;0.40;;;;;;;12.89;86.42;99565.75;5131541;27;20198;-75
2022/10/04 04:07:39;;;;;;;0.60;0.60;;;;;;;12.86;86.55;99576.97;5132586;27;20201;-76
2022/10/04 04:10:18;;;;;;;0.63;0.63;;;;;;;12.88;86.13;99575.19;5128866;27;20273;-76
2022/10/04 04:12:53;;;;;;;0.60;0.60;;;;;;;12.75;85.95;99558.53;5131637;27;20222;-76
2022/10/04 04:15:20;;;;;;;0.53;0.53;;;;;;;12.88;86.16;99575.19;5131108;27;20194;-77
2022/10/04 04:17:52;;;;;;;0.50;0.50;;;;;;;12.89;85.82;99582.00;5123323;27;20204;-76
2022/10/04 04:20:33;;;;;;;0.60;0.60;;;;;;;12.93;85.89;99587.88;5120683;27;20681;-76
2022/10/04 04:23:22;;;;;;;0.43;0.43;;;;;;;12.96;85.31;99582.63;5123330;27;20550;-76
2022/10/04 04:26:01;;;;;;;0.60;0.60;;;;;;;12.98;85.38;99593.72;5123586;27;20213;-75
2022/10/04 04:28:41;;;;;;;0.60;0.60;;;;;;;13.00;85.08;99591.91;5127320;27;20198;-74
2022/10/04 04:31:20;;;;;;;0.47;0.47;;;;;;;13.03;84.91;99591.78;5128590;27;20244;-74
2022/10/04 04:33:55;;;;;;;0.57;0.57;;;;;;;13.06;84.59;99589.09;5135049;27;21477;-74
2022/10/04 04:36:22;;;;;;;0.40;0.40;;;;;;;13.07;84.84;99596.78;5131404;27;20243;-74
2022/10/04 04:41:34;;;;;;;0.70;0.70;;;;;;;13.14;83.97;99607.72;5129511;27;20221;-75
2022/10/04 04:44:04;;;;;;;0.57;0.57;;;;;;;13.19;83.34;99599.81;5130906;27;20193;-75
2022/10/04 04:46:32;;;;;;;0.60;0.60;;;;;;;13.19;83.56;99600.66;5128668;27;20214;-74
2022/10/04 04:49:03;;;;;;;0.67;0.67;;;;;;;13.26;83.01;99612.41;5130852;27;20198;-74
2022/10/04 04:51:34;;;;;;;0.60;0.60;;;;;;;13.33;83.34;99619.00;5130859;27;20182;-74
2022/10/04 04:54:11;;;;;;;0.57;0.57;;;;;;;13.41;81.89;99622.13;5138588;27;20224;-74
2022/10/04 04:56:44;;;;;;;0.60;0.60;;;;;;;13.48;82.07;99618.41;5127781;27;20280;-75
2022/10/04 04:59:16;;;;;;;0.50;0.50;;;;;;;13.47;81.60;99611.56;5128701;27;20202;-76
2022/10/04 05:01:45;;;;;;;0.60;0.60;;;;;;;13.56;81.30;99626.69;5132753;27;20707;-76
2022/10/04 05:04:19;;;;;;;0.50;0.50;;;;;;;13.58;80.68;99624.88;5130144;27;20190;-74
2022/10/04 05:06:47;;;;;;;0.70;0.70;;;;;;;13.62;80.21;99625.63;5127972;27;20190;-74
2022/10/04 05:09:24;;;;;;;0.50;0.50;;;;;;;13.64;80.38;99629.81;5129812;27;20190;-75
2022/10/04 05:11:53;;;;;;;0.50;0.50;;;;;;;13.72;79.52;99621.78;5133748;27;20217;-75
2022/10/04 05:14:24;;;;;;;0.60;0.60;;;;;;;13.81;79.91;99625.72;5127974;27;20217;-76
2022/10/04 05:16:55;;;;;;;0.40;0.40;;;;;;;13.89;79.43;99634.84;5134156;27;20217;-76
2022/10/04 05:19:27;;;;;;;0.60;0.60;;;;;;;13.98;79.25;99639.63;5129218;27;20193;-76
2022/10/04 05:22:10;;;;;;;0.60;0.60;;;;;;;14.06;79.24;99637.56;5129982;27;20715;-77
2022/10/04 05:24:40;;;;;;;0.50;0.50;;;;;;;14.16;79.43;99632.88;5129368;27;20198;-74
2022/10/04 05:27:17;;;;;;;0.50;0.50;;;;;;;14.28;78.44;99645.25;5128513;27;20190;-74
2022/10/04 05:29:58;;;;;;;0.50;0.50;;;;;;;14.32;77.93;99628.75;5128225;27;20187;-78
2022/10/04 05:32:38;;;;;;;0.50;0.50;;;;;;;14.27;78.05;99599.75;5129032;27;20236;-77
2022/10/04 05:35:18;;;;;;;0.60;0.60;;;;;;;14.52;78.13;99648.59;5127643;27;20190;-76
2022/10/04 05:38:15;;;;;;;0.60;0.60;;;;;;;14.47;77.38;99653.13;5135019;27;20194;-73
2022/10/04 05:40:49;;;;;;;0.70;0.70;;;;;;;14.40;77.89;99656.84;5128975;27;20217;-73
2022/10/04 05:43:30;;;;;;;0.60;0.60;;;;;;;14.39;77.83;99650.84;5130148;27;20193;-74
2022/10/04 05:46:22;;;;;;;0.50;0.50;;;;;;;14.35;78.43;99654.44;5129503;27;20697;-75
2022/10/04 05:48:54;;;;;;;0.50;0.50;;;;;;;14.32;78.65;99667.44;5130836;27;20209;-74
2022/10/04 05:51:30;;;;;;;0.53;0.53;;;;;;;14.33;78.80;99661.44;5133380;27;20225;-75
2022/10/04 05:54:01;;;;;;;0.43;0.43;;;;;;;14.07;78.58;99628.09;5134905;27;20225;-75
2022/10/04 05:56:58;;;;;;;0.50;0.50;;;;;;;14.29;79.54;99675.31;5132419;27;20220;-74
2022/10/04 05:59:44;;;;;;;0.50;0.50;;;;;;;14.31;78.72;99678.69;5137986;27;20625;-75
2022/10/04 06:02:35;;;;;;;0.50;0.50;;;;;;;14.36;79.05;99684.50;5133205;27;20340;-75
2022/10/04 06:05:23;;;;;;;0.50;0.50;;;;;;;14.43;79.44;99698.84;5131279;27;20258;-75
2022/10/04 06:08:01;;;;;;;0.53;0.53;;;;;;;14.39;78.96;99676.66;5131976;27;20190;-75
2022/10/04 06:10:47;;;;;;;0.50;0.50;;;;;;;14.51;78.73;99699.34;5138672;27;20197;-75
2022/10/04 06:13:35;;;;;;;0.50;0.50;;;;;;;14.41;78.24;99687.72;5143551;27;20255;-75
2022/10/04 06:19:55;;;;;;;0.47;0.47;;;;;;;14.46;79.49;99709.03;5145083;27;20309;-75
2022/10/04 06:22:35;;;;;;;0.60;0.60;;;;;;;14.36;79.75;99712.03;5079318;28;20266;-75
2022/10/04 06:25:08;;;;;;;0.40;0.40;;;;;;;14.43;80.10;99714.31;5073420;28;20629;-75
2022/10/04 06:27:46;;;;;;;0.40;0.40;;;;;;;14.47;80.49;99718.47;5108673;27;20640;-76
2022/10/04 06:30:16;;;;;;;0.40;0.40;;;;;;;14.48;79.97;99714.94;5149341;27;20193;-75
2022/10/04 06:33:19;;;;;;;0.40;0.40;;;;;;;14.50;80.25;99720.06;5132933;27;20201;-75
2022/10/04 06:36:37;;;;;;;0.50;0.50;;;;;;;14.53;80.66;99725.94;5129383;27;20210;-76
2022/10/04 06:39:31;;;;;;;0.50;0.50;;;;;;;14.63;80.11;99726.41;5128874;27;20206;-76
2022/10/04 06:42:21;;;;;;;0.50;0.50;;;;;;;14.66;80.14;99726.28;5128045;27;20226;-75
2022/10/04 06:45:07;;;;;;;0.50;0.50;;;;;;;14.71;79.60;99740.66;5140556;27;20277;-75
2022/10/04 06:47:59;;;;;;;0.60;0.60;;;;;;;14.77;79.73;99733.53;5133159;27;20211;-76
2022/10/04 06:50:39;;;;;;;0.40;0.40;;;;;;;14.87;78.71;99740.00;5132608;27;20209;-75
2022/10/04 06:53:25;;;;;;;0.50;0.50;;;;;;;14.68;78.15;99703.81;5141751;27;20222;-76
2022/10/04 06:56:20;;;;;;;0.70;0.70;;;;;;;14.79;77.73;99700.78;5132393;27;20260;-76
2022/10/04 06:59:34;;;;;;;0.40;0.40;;;;;;;15.18;78.47;99745.56;5130017;27;20288;-76
2022/10/04 07:02:19;;;;;;;0.50;0.50;;;;;;;15.27;75.45;99755.47;5136086;27;20318;-77
2022/10/04 07:04:57;;;;;;;0.50;0.50;;;;;;;15.30;75.85;99750.19;5147944;27;20278;-76
2022/10/04 07:07:48;;;;;;;0.50;0.50;;;;;;;15.31;74.93;99759.63;5132681;27;20203;-76
2022/10/04 07:10:43;;;;;;;0.40;0.40;;;;;;;15.39;75.93;99767.84;5130808;27;20201;-76
2022/10/04 07:13:33;;;;;;;0.63;0.63;;;;;;;15.51;75.67;99764.75;5130759;27;20216;-76
2022/10/04 07:16:07;;;;;;;0.50;0.50;;;;;;;15.56;75.00;99757.66;5130374;27;20277;-76
2022/10/04 07:18:43;;;;;;;0.50;0.50;;;;;;;15.83;75.59;99749.56;5138429;27;20309;-76
2022/10/04 07:21:15;;;;;;;0.67;0.67;;;;;;;16.24;74.95;99761.38;5133261;27;20301;-76
2022/10/04 07:23:52;;;;;;;0.40;0.40;;;;;;;16.63;71.45;99759.50;5133112;27;20545;-76
2022/10/04 07:29:23;;;;;;;0.50;0.50;;;;;;;17.18;67.27;99761.91;5134394;27;20202;-76
2022/10/04 07:32:04;;;;;;;0.47;0.47;;;;;;;17.34;66.47;99767.97;5132097;27;20610;-76
2022/10/04 07:34:35;;;;;;;0.50;0.50;;;;;;;17.29;64.98;99718.97;5128479;27;20232;-77
2022/10/04 07:37:14;;;;;;;0.50;0.50;;;;;;;17.61;64.22;99766.56;5130107;27;20202;-76
2022/10/04 07:39:51;;;;;;;0.50;0.50;;;;;;;17.53;64.69;99753.13;5132439;27;20576;-77
2022/10/04 07:42:39;;;;;;;0.50;0.50;;;;;;;17.49;65.16;99764.59;5132406;27;20290;-76
2022/10/04 07:45:16;;;;;;;0.50;0.50;;;;;;;17.45;64.50;99765.66;5140935;27;20216;-77
2022/10/04 07:47:48;;;;;;;0.40;0.40;;;;;;;17.55;63.82;99761.69;5128351;27;20683;-77
2022/10/04 07:50:26;;;;;;;0.50;0.50;;;;;;;17.72;62.11;99769.41;5139345;27;20185;-76
2022/10/04 07:53:05;;;;;;;0.40;0.40;;;;;;;18.04;60.84;99772.03;5147324;27;20280;-77
2022/10/04 07:55:51;;;;;;;0.43;0.43;;;;;;;17.97;58.90;99717.03;5133453;27;20204;-77
2022/10/04 07:58:34;;;;;;;0.50;0.50;;;;;;;18.39;57.94;99760.53;5135937;27;20189;-77
2022/10/04 08:01:10;;;;;;;0.50;0.50;;;;;;;18.41;58.06;99748.31;5139594;27;20201;-76
2022/10/04 08:10:55;;;;;;;0.50;0.50;;;;;;;18.96;56.08;99768.53;5132300;27;20683;-77
2022/10/04 08:47:43;;;;;;;0.47;0.47;;;;;;;20.52;51.48;99754.44;4991161;28;20202;-77
2022/10/04 09:31:46;;;;;;;0.27;0.27;;;;;;;21.23;46.73;99793.16;5019798;28;20187;-78
2022/10/04 09:41:31;;;;;;;0.50;0.50;;;;;;;20.95;45.74;99792.41;5094051;27;20229;-78
2022/10/04 10:18:13;;;;;;;0.30;0.30;;;;;;;20.92;44.03;99790.00;5032677;28;20258;-78
2022/10/04 10:21:47;;;;;;;0.40;0.40;;;;;;;20.76;43.93;99778.91;5013447;28;20196;-78
2022/10/04 10:35:25;;;;;;;0.30;0.30;;;;;;;20.90;45.24;99786.63;5032433;28;20211;-80
2022/10/04 10:45:30;;;;;;;0.30;0.30;;;;;;;20.59;45.58;99787.00;5032769;28;20186;-80
2022/10/04 10:55:43;;;;;;;0.40;0.40;;;;;;;20.50;45.50;99784.16;5053113;28;20652;-79
2022/10/04 11:16:04;;;;;;;0.33;0.33;;;;;;;20.80;45.09;99777.78;5012311;28;20181;-81
2022/10/04 11:19:09;;;;;;;0.47;0.47;;;;;;;20.75;45.00;99777.22;5010077;28;20247;-80
2022/10/04 11:28:45;;;;;;;0.40;0.40;;;;;;;20.69;46.90;99774.19;5071285;28;20203;-80
2022/10/04 11:48:57;;;;;;;0.53;0.53;;;;;;;20.98;44.59;99791.34;5050047;28;20198;-79
2022/10/04 11:59:00;;;;;;;0.40;0.40;;;;;;;21.30;45.42;99794.44;5071581;28;20192;-81
2022/10/04 12:19:18;;;;;;;0.40;0.40;;;;;;;20.90;46.32;99797.06;5031636;28;20296;-80
2022/10/04 12:32:26;;;;;;;0.50;0.50;;;;;;;20.77;45.61;99785.81;4934984;29;20197;-81
2022/10/04 12:38:49;;;;;;;0.50;0.50;;;;;;;20.64;46.50;99792.75;4937748;28;20590;-81
2022/10/04 12:55:09;;;;;;;0.60;0.60;;;;;;;20.55;46.31;99795.94;5010028;28;20204;-80
2022/10/04 13:04:37;;;;;;;0.43;0.43;;;;;;;20.51;44.60;99799.69;5050473;28;20192;-80
2022/10/04 13:07:51;;;;;;;0.43;0.43;;;;;;;20.52;45.62;99805.75;5092731;28;20262;-80
2022/10/04 13:14:05;;;;;;;3.30;1.00;;;;;;;20.51;46.28;99809.25;5077650;28;20203;-81
2022/10/04 13:16:56;;;;;;;0.50;0.50;;;;;;;20.36;46.64;99808.47;5022525;28;20690;-80
2022/10/04 13:23:11;;;;;;;0.57;0.57;;;;;;;20.26;46.82;99809.94;5070340;28;20208;-79
2022/10/04 13:39:28;;;;;;;0.60;0.60;;;;;;;20.67;44.56;99805.56;4990855;28;20216;-77
2022/10/04 14:09:16;;;;;;;0.40;0.40;;;;;;;20.89;42.60;99811.03;5029974;28;20584;-78
2022/10/04 14:15:52;;;;;;;0.30;0.30;;;;;;;20.59;42.61;99807.81;5013499;28;20164;-78
2022/10/04 14:29:06;;;;;;;0.40;0.40;;;;;;;20.95;44.07;99820.22;4992322;28;20329;-78
2022/10/04 14:38:52;;;;;;;0.40;0.40;;;;;;;21.47;43.04;99828.03;5006923;28;20201;-78
2022/10/04 14:48:54;;;;;;;0.50;0.50;;;;;;;21.57;41.66;99823.88;5025929;28;20222;-78
2022/10/04 15:01:26;;;;;;;0.50;0.50;;;;;;;21.07;42.61;99834.22;5017212;28;20246;-72
2022/10/04 15:04:11;;;;;;;0.33;0.33;;;;;;;20.91;42.32;99850.88;5028296;28;20216;-70
2022/10/04 15:06:47;;;;;;;0.50;0.50;;;;;;;20.72;42.18;99844.34;5024042;28;20233;-68
2022/10/04 15:09:33;;;;;;;0.30;0.30;;;;;;;20.62;42.44;99854.53;5022762;28;20675;-70
2022/10/04 15:12:17;;;;;;;0.30;0.30;;;;;;;20.51;42.60;99851.78;5019214;28;20732;-70
2022/10/04 15:15:17;;;;;;;0.50;0.50;;;;;;;20.30;44.04;99859.16;5014224;28;20657;-71
2022/10/04 15:18:00;;;;;;;0.40;0.40;;;;;;;20.21;43.79;99858.88;5017013;28;20644;-70
2022/10/04 15:20:32;;;;;;;0.50;0.50;;;;;;;20.08;44.66;99863.16;5019551;28;20198;-71
2022/10/04 15:23:14;;;;;;;0.53;0.53;;;;;;;19.94;45.54;99864.00;5027526;28;20223;-70
2022/10/04 15:25:44;;;;;;;0.40;0.40;;;;;;;19.96;46.08;99863.94;5017994;28;20203;-67
2022/10/04 15:28:38;;;;;;;0.67;0.67;;;;;;;19.84;46.67;99861.13;5023122;28;20245;-70
2022/10/04 15:31:12;;;;;;;0.40;0.40;;;;;;;19.73;47.04;99866.16;5021797;28;20221;-75
2022/10/04 15:33:56;;;;;;;0.30;0.30;;;;;;;19.58;48.18;99872.25;5025703;28;20202;-77
2022/10/04 15:37:00;;;;;;;0.40;0.40;;;;;;;19.43;49.12;99867.97;5016979;28;20212;-76
2022/10/04 15:40:13;;;;;;;0.50;0.50;;;;;;;19.38;49.71;99870.00;5023065;28;20198;-76
2022/10/04 15:42:59;;;;;;;0.30;0.30;;;;;;;19.36;50.15;99864.88;5028380;28;20226;-78
2022/10/04 15:45:52;;;;;;;0.40;0.40;;;;;;;19.31;50.53;99873.88;5027393;28;20679;-78
2022/10/04 15:48:35;;;;;;;0.83;0.83;;;;;;;19.28;50.63;99874.06;5022447;28;20205;-78
2022/10/04 15:51:16;;;;;;;0.40;0.40;;;;;;;19.27;51.23;99880.16;5030615;28;20259;-77
2022/10/04 15:54:09;;;;;;;0.50;0.50;;;;;;;19.22;51.52;99877.00;5030791;28;20332;-78
2022/10/04 15:56:47;;;;;;;0.50;0.50;;;;;;;19.28;51.95;99887.91;5020854;28;20908;-77
2022/10/04 15:59:43;;;;;;;0.40;0.40;;;;;;;19.27;52.18;99890.56;5025979;28;20202;-78
2022/10/04 16:02:26;;;;;;;0.47;0.47;;;;;;;19.12;52.51;99875.88;5031815;28;20248;-78
2022/10/04 16:05:07;;;;;;;0.60;0.60;;;;;;;19.21;52.78;99890.94;5025919;28;20198;-78
2022/10/04 16:07:58;;;;;;;0.43;0.43;;;;;;;19.27;53.37;99903.56;5010296;28;20640;-77
2022/10/04 16:10:29;;;;;;;0.50;0.50;;;;;;;19.09;53.54;99896.84;5011402;28;20261;-77
2022/10/04 16:13:27;;;;;;;0.37;0.37;;;;;;;19.08;53.89;99897.75;5010264;28;20689;-77
2022/10/04 16:16:31;;;;;;;0.50;0.50;;;;;;;19.05;54.20;99919.56;5011744;28;20213;-77
2022/10/04 16:19:09;;;;;;;0.50;0.50;;;;;;;18.98;54.31;99920.81;5021959;28;20570;-78
2022/10/04 16:21:50;;;;;;;0.43;0.43;;;;;;;18.97;54.75;99920.88;5028964;28;20212;-77
2022/10/04 16:24:47;;;;;;;0.60;0.60;;;;;;;18.94;54.96;99927.09;5009470;28;20228;-78
2022/10/04 16:27:47;;;;;;;0.50;0.50;;;;;;;18.73;55.51;99903.19;4999793;28;20280;-77
2022/10/04 16:30:20;;;;;;;0.70;0.70;;;;;;;18.88;55.62;99943.88;5007991;28;20198;-78
2022/10/04 16:33:05;;;;;;;0.60;0.60;;;;;;;18.86;56.23;99937.94;5009717;28;20222;-76
2022/10/04 16:35:36;;;;;;;0.60;0.60;;;;;;;18.78;56.46;99937.53;5010124;28;20209;-77
2022/10/04 16:38:20;;;;;;;0.40;0.40;;;;;;;18.76;56.87;99941.13;5009034;28;20307;-78
2022/10/04 16:41:10;;;;;;;0.50;0.50;;;;;;;18.76;57.19;99941.13;5010427;28;20297;-77
2022/10/04 16:43:48;;;;;;;0.50;0.50;;;;;;;18.69;57.29;99952.78;5009989;28;20627;-78
2022/10/04 16:46:23;;;;;;;0.50;0.50;;;;;;;18.69;57.26;99961.41;5010110;28;20209;-77
2022/10/04 16:48:56;;;;;;;0.50;0.50;;;;;;;18.67;57.15;99958.06;5010586;28;20221;-76
2022/10/04 16:51:56;;;;;;;0.60;0.60;;;;;;;18.63;57.77;99966.94;5009150;28;20666;-78
2022/10/04 16:54:48;;;;;;;0.47;0.47;;;;;;;18.62;58.04;99975.63;5000735;28;20195;-77
2022/10/04 16:57:22;;;;;;;0.40;0.40;;;;;;;18.52;58.12;99969.25;5009549;28;20210;-77
2022/10/04 16:59:57;;;;;;;0.40;0.40;;;;;;;18.53;58.67;99983.94;5010884;28;20276;-77
2022/10/04 17:03:02;;;;;;;0.60;0.60;;;;;;;18.46;58.71;99985.13;5011006;28;20678;-77
2022/10/04 17:05:55;;;;;;;0.40;0.40;;;;;;;18.48;58.46;99993.66;5009499;28;20202;-77
2022/10/04 17:08:29;;;;;;;0.57;0.57;;;;;;;18.35;58.73;99988.28;5003207;28;20233;-77
2022/10/04 17:11:35;;;;;;;0.40;0.40;;;;;;;18.41;59.09;100005.31;5016658;28;20202;-77
2022/10/04 17:14:21;;;;;;;0.50;0.50;;;;;;;18.39;59.33;100004.53;5005756;28;20219;-76
2022/10/04 17:16:56;;;;;;;0.47;0.47;;;;;;;18.22;59.54;99991.63;5008619;28;20206;-77
2022/10/04 17:19:32;;;;;;;0.60;0.60;;;;;;;18.35;59.56;100023.81;5013836;28;20190;-77
2022/10/04 17:22:14;;;;;;;0.57;0.57;;;;;;;18.34;59.82;100027.31;5008871;28;20694;-78
2022/10/04 17:25:01;;;;;;;0.40;0.40;;;;;;;18.31;59.92;100028.31;5005935;28;20382;-78
2022/10/04 17:27:45;;;;;;;0.57;0.57;;;;;;;18.26;60.75;100037.25;5011421;28;20214;-78
2022/10/04 17:30:21;;;;;;;0.50;0.50;;;;;;;18.20;61.12;100034.97;5009120;28;20667;-72
2022/10/04 17:33:07;;;;;;;0.53;0.53;;;;;;;18.02;62.22;100048.88;5014435;28;20199;-78
2022/10/04 17:35:58;;;;;;;0.60;0.60;;;;;;;17.86;62.77;100050.56;5006746;28;20209;-78
2022/10/04 17:38:35;;;;;;;0.40;0.40;;;;;;;17.69;63.96;100049.66;5007819;28;20363;-78
2022/10/04 17:41:15;;;;;;;0.50;0.50;;;;;;;17.29;64.36;100010.97;5014364;28;20217;-79
2022/10/04 17:44:03;;;;;;;0.50;0.50;;;;;;;17.53;64.80;100068.56;5015350;28;20689;-78
2022/10/04 17:46:44;;;;;;;0.50;0.50;;;;;;;17.47;64.88;100069.72;5012770;28;20210;-74
2022/10/04 17:55:18;;;;;;;0.43;0.43;;;;;;;17.44;65.23;100080.22;5010932;28;20293;-74
2022/10/04 17:57:50;;;;;;;0.40;0.40;;;;;;;17.45;65.77;100081.88;5010774;28;20206;-74
2022/10/04 18:00:22;;;;;;;0.57;0.57;;;;;;;17.25;66.49;100069.06;5023022;28;20249;-74
2022/10/04 18:03:07;;;;;;;0.60;0.60;;;;;;;17.24;66.53;100085.50;5032302;28;20209;-75
2022/10/04 18:05:46;;;;;;;0.53;0.53;;;;;;;17.18;66.45;100098.75;5030723;28;20197;-74
2022/10/04 18:08:18;;;;;;;0.50;0.50;;;;;;;17.17;66.63;100091.88;5032245;28;20201;-73
2022/10/04 18:10:50;;;;;;;0.60;0.60;;;;;;;17.19;66.41;100095.22;5032893;28;20202;-74
2022/10/04 18:13:25;;;;;;;0.40;0.40;;;;;;;17.23;66.80;100096.78;5032872;28;20205;-74
2022/10/04 18:15:58;;;;;;;0.60;0.60;;;;;;;17.26;66.36;100097.47;5032089;28;20271;-74
2022/10/04 18:18:29;;;;;;;0.50;0.50;;;;;;;17.26;66.36;100096.63;5034364;28;20240;-74
2022/10/04 18:21:21;;;;;;;0.60;0.60;;;;;;;17.22;66.18;100108.06;5032547;28;20217;-74
2022/10/04 18:23:56;;;;;;;0.50;0.50;;;;;;;17.04;64.60;100114.91;5022692;28;20237;-74
2022/10/04 18:26:24;;;;;;;0.50;0.50;;;;;;;16.93;64.96;100113.72;5035298;28;20204;-74
2022/10/04 18:28:54;;;;;;;0.50;0.50;;;;;;;16.79;65.44;100115.19;5032248;28;20576;-74